Time;durP1;ratioP1;P1;durP2;ratioP2;P2;SDS_P1;SDS_P2;PMS_P1;PMS_P2;Temp;Humidity;BMP_temperature;BMP_pressure;BME280_temperature;BME280_humidity;BME280_pressure;Samples;Min_cycle;Max_cycle;Signal;HPM_P1;HPM_P2
2021/11/13 00:02:16;;;;;;;56.08;39.45;;;;;;;9.44;100.00;100201.91;5034331;28;20053;-83
2021/11/13 00:04:43;;;;;;;77.50;39.70;;;;;;;9.47;100.00;100200.91;5034512;28;20053;-83
2021/11/13 00:07:11;;;;;;;57.35;39.17;;;;;;;9.56;100.00;100201.34;5032455;28;20132;-81
2021/11/13 00:09:38;;;;;;;55.47;37.72;;;;;;;9.56;100.00;100195.28;5031647;28;20063;-82
2021/11/13 00:12:06;;;;;;;56.03;38.90;;;;;;;9.51;100.00;100200.69;5032021;28;20045;-82
2021/11/13 00:14:33;;;;;;;60.22;41.03;;;;;;;9.62;100.00;100202.81;5032482;28;20107;-81
2021/11/13 00:17:00;;;;;;;54.00;38.00;;;;;;;9.68;100.00;100198.16;5031600;28;20385;-82
2021/11/13 00:19:29;;;;;;;53.55;38.70;;;;;;;9.73;100.00;100197.94;5031949;28;20103;-83
2021/11/13 00:21:56;;;;;;;54.53;38.97;;;;;;;9.72;100.00;100193.66;5033550;28;20076;-84
2021/11/13 00:24:29;;;;;;;61.30;43.10;;;;;;;9.80;100.00;100188.06;5031582;28;20048;-85
2021/11/13 00:26:55;;;;;;;60.88;39.45;;;;;;;9.91;100.00;100191.88;5032006;28;20041;-84
2021/11/13 00:29:22;;;;;;;60.13;42.08;;;;;;;10.06;100.00;100189.41;5030548;28;20045;-83
2021/11/13 00:31:51;;;;;;;64.40;42.50;;;;;;;9.97;100.00;100186.38;5029608;28;20041;-84
2021/11/13 00:34:21;;;;;;;71.03;44.60;;;;;;;10.12;100.00;100189.13;5030425;28;20404;-82
2021/11/13 00:36:48;;;;;;;73.05;45.42;;;;;;;10.13;100.00;100188.22;5031488;28;20049;-83
2021/11/13 00:39:15;;;;;;;71.70;44.47;;;;;;;10.12;100.00;100178.69;5033015;28;20483;-83
2021/11/13 00:41:41;;;;;;;81.28;50.00;;;;;;;10.09;100.00;100174.50;5031758;28;20060;-84
2021/11/13 00:44:09;;;;;;;85.95;51.75;;;;;;;10.22;100.00;100175.56;5025259;28;20525;-83
2021/11/13 00:46:36;;;;;;;86.25;51.17;;;;;;;10.26;100.00;100171.09;5022673;28;20543;-84
2021/11/13 00:49:05;;;;;;;85.78;50.85;;;;;;;10.25;100.00;100176.38;5028240;28;20103;-84
2021/11/13 00:51:33;;;;;;;82.35;50.63;;;;;;;10.26;100.00;100176.31;5024155;28;20041;-84
2021/11/13 00:54:01;;;;;;;77.10;46.28;;;;;;;10.25;100.00;100169.41;5027908;28;20044;-84
2021/11/13 00:56:28;;;;;;;77.90;46.55;;;;;;;10.14;100.00;100171.69;5022924;28;20054;-84
2021/11/13 00:58:55;;;;;;;76.13;48.05;;;;;;;10.11;100.00;100179.63;5025402;28;20046;-83
2021/11/13 01:01:23;;;;;;;87.05;52.08;;;;;;;10.00;100.00;100168.91;5026785;28;20128;-87
2021/11/13 01:03:50;;;;;;;75.70;49.10;;;;;;;9.89;100.00;100174.63;5028285;28;20046;-84
2021/11/13 01:06:17;;;;;;;76.10;47.47;;;;;;;9.82;100.00;100171.47;5028133;28;20075;-84
2021/11/13 01:08:47;;;;;;;63.90;44.72;;;;;;;9.64;100.00;100162.78;5026397;28;20144;-83
2021/11/13 01:11:16;;;;;;;76.78;46.75;;;;;;;9.64;100.00;100165.41;5029958;28;20103;-85
2021/11/13 01:13:43;;;;;;;72.10;45.40;;;;;;;9.60;100.00;100156.03;5031009;28;20075;-84
2021/11/13 01:16:13;;;;;;;75.32;46.05;;;;;;;9.62;100.00;100148.16;5028917;28;20060;-84
2021/11/13 01:18:40;;;;;;;78.88;48.53;;;;;;;9.53;100.00;100149.41;5034223;28;20205;-84
2021/11/13 01:21:08;;;;;;;81.18;48.35;;;;;;;9.55;100.00;100149.38;5028079;28;20049;-85
2021/11/13 01:23:36;;;;;;;75.65;44.67;;;;;;;9.50;100.00;100143.53;5024896;28;20425;-85
2021/11/13 01:26:05;;;;;;;81.10;46.75;;;;;;;9.44;100.00;100149.88;5029930;28;20067;-85
2021/11/13 01:28:32;;;;;;;95.05;49.60;;;;;;;9.45;100.00;100143.75;5024754;28;20388;-84
2021/11/13 01:30:59;;;;;;;82.97;48.80;;;;;;;9.38;100.00;100156.22;5024393;28;20075;-85
2021/11/13 01:33:26;;;;;;;81.93;50.83;;;;;;;9.40;100.00;100143.13;5025955;28;20053;-85
2021/11/13 01:35:53;;;;;;;75.15;47.10;;;;;;;9.37;100.00;100144.09;5028341;28;20052;-85
2021/11/13 01:38:20;;;;;;;74.85;48.22;;;;;;;9.31;100.00;100146.13;5024801;28;20041;-84
2021/11/13 01:40:47;;;;;;;82.13;47.22;;;;;;;9.41;100.00;100143.03;5026753;28;20045;-84
2021/11/13 01:43:14;;;;;;;73.78;44.58;;;;;;;9.51;100.00;100147.81;5029021;28;20411;-83
2021/11/13 01:45:41;;;;;;;76.22;45.90;;;;;;;9.47;100.00;100143.66;5030004;28;20092;-83
2021/11/13 01:48:08;;;;;;;68.78;45.00;;;;;;;9.59;100.00;100143.94;5030801;28;20091;-85
2021/11/13 01:50:40;;;;;;;72.18;46.63;;;;;;;9.59;100.00;100136.16;5031970;28;20076;-85
2021/11/13 01:53:08;;;;;;;67.80;44.13;;;;;;;9.48;100.00;100133.22;5022201;28;20119;-83
2021/11/13 01:55:36;;;;;;;64.50;41.53;;;;;;;9.43;100.00;100128.22;5031854;28;20053;-87
2021/11/13 01:58:06;;;;;;;63.03;40.03;;;;;;;9.27;100.00;100127.25;5013827;28;20093;-85
2021/11/13 02:00:37;;;;;;;68.45;42.17;;;;;;;8.77;100.00;100138.16;5018302;28;20052;-85
2021/11/13 02:03:05;;;;;;;68.43;43.22;;;;;;;8.69;100.00;100135.09;5027528;28;20136;-86
2021/11/13 02:05:32;;;;;;;53.60;35.97;;;;;;;8.83;100.00;100132.69;5033121;28;20103;-85
2021/11/13 02:08:00;;;;;;;47.72;32.97;;;;;;;8.88;100.00;100135.09;5027670;28;20045;-86
2021/11/13 02:10:28;;;;;;;59.95;34.75;;;;;;;8.87;100.00;100134.25;5031818;28;20372;-86
2021/11/13 02:12:55;;;;;;;51.85;33.75;;;;;;;8.94;100.00;100134.81;5023312;28;20041;-85
2021/11/13 02:15:23;;;;;;;53.00;33.88;;;;;;;8.90;100.00;100123.72;5026367;28;20095;-85
2021/11/13 02:17:51;;;;;;;52.65;31.15;;;;;;;8.97;100.00;100128.66;5021394;28;20053;-87
2021/11/13 02:20:32;;;;;;;48.70;33.63;;;;;;;9.16;100.00;100126.88;5033626;28;20435;-87
2021/11/13 02:23:08;;;;;;;48.33;35.17;;;;;;;9.27;100.00;100124.66;5049396;28;20041;-88
2021/11/13 02:25:35;;;;;;;52.78;32.50;;;;;;;9.16;100.00;100134.69;5049283;28;20052;-86
2021/11/13 02:28:04;;;;;;;45.33;29.35;;;;;;;9.49;100.00;100132.28;5050634;28;20029;-87
2021/11/13 02:30:32;;;;;;;44.45;30.85;;;;;;;9.57;100.00;100129.31;5050797;28;20050;-86
2021/11/13 02:32:59;;;;;;;53.85;33.30;;;;;;;9.63;100.00;100124.66;5050893;28;20029;-87
2021/11/13 02:35:30;;;;;;;48.63;30.75;;;;;;;9.54;100.00;100127.72;5050577;28;20581;-85
2021/11/13 02:38:10;;;;;;;51.42;30.67;;;;;;;9.49;100.00;100116.69;5047484;28;20487;-88
2021/11/13 02:40:38;;;;;;;46.75;31.10;;;;;;;9.38;100.00;100113.75;5044464;28;20046;-88
2021/11/13 02:43:04;;;;;;;51.90;29.45;;;;;;;9.15;100.00;100120.00;5038857;28;20051;-88
2021/11/13 02:45:32;;;;;;;42.17;28.92;;;;;;;9.13;100.00;100119.22;5038524;28;20098;-87
2021/11/13 02:48:02;;;;;;;46.17;28.67;;;;;;;9.02;100.00;100116.28;5033869;28;20053;-86
2021/11/13 02:50:30;;;;;;;44.85;30.92;;;;;;;9.04;100.00;100114.44;5030173;28;20500;-87
2021/11/13 02:53:00;;;;;;;53.83;31.52;;;;;;;9.16;100.00;100101.75;5029478;28;20542;-86
2021/11/13 02:55:28;;;;;;;47.63;31.08;;;;;;;9.32;100.00;100104.47;5029339;28;20115;-86
2021/11/13 02:57:56;;;;;;;49.35;31.27;;;;;;;9.27;100.00;100103.84;5029306;28;20053;-87
2021/11/13 03:00:26;;;;;;;54.20;31.50;;;;;;;9.30;100.00;100108.03;5029049;28;20392;-87
2021/11/13 03:02:53;;;;;;;54.35;31.67;;;;;;;9.35;100.00;100112.13;5029089;28;20545;-86
2021/11/13 03:05:31;;;;;;;86.78;40.38;;;;;;;9.26;100.00;100115.13;5029385;28;20083;-86
2021/11/13 03:08:01;;;;;;;88.28;39.95;;;;;;;9.23;100.00;100117.06;5029261;28;20045;-86
2021/11/13 03:10:32;;;;;;;79.65;40.50;;;;;;;9.39;100.00;100120.63;5029016;28;20076;-86
2021/11/13 03:12:59;;;;;;;73.20;38.15;;;;;;;9.19;100.00;100124.16;5038112;23;20037;-88
2021/11/13 03:15:27;;;;;;;61.92;38.72;;;;;;;9.47;100.00;100123.69;4949431;28;20091;-87
2021/11/13 03:17:55;;;;;;;68.65;38.90;;;;;;;9.67;100.00;100128.78;4949079;28;20486;-88
2021/11/13 03:20:28;;;;;;;62.40;36.47;;;;;;;9.70;100.00;100125.22;4951222;28;20078;-87
2021/11/13 03:23:00;;;;;;;70.13;38.50;;;;;;;9.80;100.00;100116.03;4950897;28;20480;-87
2021/11/13 03:25:39;;;;;;;79.30;38.72;;;;;;;9.92;100.00;100125.00;4950839;28;20043;-88
2021/11/13 03:28:11;;;;;;;62.40;35.67;;;;;;;9.91;100.00;100133.75;4950840;28;20102;-88
2021/11/13 03:30:39;;;;;;;66.93;36.22;;;;;;;9.82;100.00;100124.63;4947394;29;20059;-88
2021/11/13 03:33:07;;;;;;;65.03;37.05;;;;;;;9.90;100.00;100126.81;4949647;29;20197;-89
2021/11/13 03:35:34;;;;;;;71.70;36.55;;;;;;;9.69;100.00;100128.72;4949114;29;20080;-88
2021/11/13 03:38:10;;;;;;;61.63;35.72;;;;;;;9.87;100.00;100129.59;4949567;28;20460;-89
2021/11/13 03:40:40;;;;;;;76.93;35.38;;;;;;;9.92;100.00;100131.06;4950126;28;20045;-88
2021/11/13 03:43:08;;;;;;;60.38;33.65;;;;;;;9.89;100.00;100130.34;4947275;28;20444;-88
2021/11/13 03:45:36;;;;;;;64.47;35.22;;;;;;;9.86;100.00;100135.72;4947448;28;20047;-88
2021/11/13 03:48:04;;;;;;;61.38;33.78;;;;;;;9.92;100.00;100133.66;4953587;28;20044;-88
2021/11/13 03:50:31;;;;;;;58.45;34.80;;;;;;;9.88;100.00;100132.13;4953741;28;20059;-88
2021/11/13 03:52:59;;;;;;;68.75;35.83;;;;;;;9.87;100.00;100130.44;4953649;28;20039;-88
2021/11/13 03:55:29;;;;;;;76.25;39.50;;;;;;;9.88;100.00;100134.72;4954124;28;20051;-88
2021/11/13 03:57:56;;;;;;;76.55;36.47;;;;;;;10.02;100.00;100134.06;4953717;28;20047;-88
2021/11/13 04:00:22;;;;;;;59.63;34.08;;;;;;;10.00;100.00;100135.88;4953979;28;20079;-88
2021/11/13 04:02:50;;;;;;;58.15;34.25;;;;;;;10.05;100.00;100136.50;4953084;28;20070;-88
2021/11/13 04:05:18;;;;;;;56.95;33.90;;;;;;;10.03;100.00;100132.28;4953964;28;20409;-87
2021/11/13 04:07:45;;;;;;;56.13;34.50;;;;;;;9.86;100.00;100138.34;4953224;28;20043;-88
2021/11/13 04:10:13;;;;;;;63.63;35.08;;;;;;;9.90;100.00;100132.88;4954407;28;20047;-88
2021/11/13 04:12:41;;;;;;;50.33;30.58;;;;;;;9.64;100.00;100130.69;4950116;28;20464;-88
2021/11/13 04:15:10;;;;;;;60.47;32.92;;;;;;;9.63;100.00;100135.06;4950088;28;20447;-87
2021/11/13 04:17:37;;;;;;;65.80;30.65;;;;;;;9.65;100.00;100132.41;4933846;28;20087;-89
2021/11/13 04:20:08;;;;;;;50.47;29.67;;;;;;;9.87;100.00;100127.84;4953818;28;20058;-88
2021/11/13 04:22:35;;;;;;;55.95;31.55;;;;;;;9.78;100.00;100123.06;4953743;28;20378;-88
2021/11/13 04:25:03;;;;;;;54.10;30.67;;;;;;;9.80;100.00;100129.06;4953441;28;20095;-88
2021/11/13 04:27:31;;;;;;;46.10;30.67;;;;;;;9.68;100.00;100140.88;4953440;28;20051;-88
2021/11/13 04:29:58;;;;;;;45.25;30.83;;;;;;;9.78;100.00;100132.66;4951682;28;20047;-88
2021/11/13 04:32:29;;;;;;;42.58;28.05;;;;;;;9.92;100.00;100138.88;4953749;28;20058;-89
2021/11/13 04:37:24;;;;;;;43.28;30.90;;;;;;;9.78;100.00;100149.09;4951815;29;20043;-89
2021/11/13 04:39:52;;;;;;;47.45;29.55;;;;;;;9.76;100.00;100148.34;4952932;28;20047;-88
2021/11/13 04:42:19;;;;;;;102.97;37.80;;;;;;;9.35;100.00;100143.31;4952891;28;20486;-89
2021/11/13 04:44:48;;;;;;;75.53;36.13;;;;;;;9.44;100.00;100135.09;4950586;28;20074;-88
2021/11/13 04:47:16;;;;;;;63.10;34.35;;;;;;;9.56;100.00;100145.84;4951599;28;20047;-87
2021/11/13 04:49:45;;;;;;;70.80;36.55;;;;;;;9.72;100.00;100141.59;4951566;29;20050;-86
2021/11/13 04:52:12;;;;;;;54.78;33.60;;;;;;;9.83;100.00;100136.72;4952682;28;20055;-86
2021/11/13 04:54:39;;;;;;;54.42;32.83;;;;;;;9.86;100.00;100128.75;4953388;28;20035;-86
2021/11/13 04:57:07;;;;;;;49.70;29.50;;;;;;;9.91;100.00;100138.97;4935836;28;20564;-86
2021/11/13 04:59:33;;;;;;;40.72;29.80;;;;;;;9.63;100.00;100137.66;4954131;28;20093;-86
2021/11/13 05:02:00;;;;;;;46.65;29.30;;;;;;;9.76;100.00;100140.53;4952937;28;20047;-86
2021/11/13 05:04:28;;;;;;;60.38;30.83;;;;;;;9.76;100.00;100139.69;4952838;28;20114;-85
2021/11/13 05:06:55;;;;;;;49.08;29.50;;;;;;;9.80;100.00;100136.88;4952631;28;20055;-88
2021/11/13 05:09:22;;;;;;;59.38;31.25;;;;;;;9.56;100.00;100132.84;4952839;28;20043;-88
2021/11/13 05:11:49;;;;;;;53.97;29.42;;;;;;;9.44;100.00;100137.72;4952717;28;20046;-90
2021/11/13 05:14:15;;;;;;;51.88;28.77;;;;;;;9.42;100.00;100136.06;4951585;29;20051;-89
2021/11/13 05:16:42;;;;;;;53.75;28.08;;;;;;;9.50;100.00;100130.53;4952943;28;20165;-89
2021/11/13 05:19:09;;;;;;;57.72;30.88;;;;;;;9.45;100.00;100126.38;4952516;28;20047;-88
2021/11/13 05:21:37;;;;;;;51.88;29.33;;;;;;;9.64;100.00;100136.78;4951635;29;20145;-88
2021/11/13 05:24:04;;;;;;;59.08;29.90;;;;;;;9.56;100.00;100122.44;4952185;28;20047;-87
2021/11/13 05:26:31;;;;;;;63.35;31.05;;;;;;;9.51;100.00;100117.44;4952926;28;20043;-88
2021/11/13 05:29:00;;;;;;;56.42;29.23;;;;;;;9.61;100.00;100123.88;4951900;28;20043;-88
2021/11/13 05:31:27;;;;;;;57.15;30.15;;;;;;;9.29;100.00;100122.81;4953040;28;20051;-88
2021/11/13 05:33:54;;;;;;;61.10;32.50;;;;;;;9.30;100.00;100119.28;4951754;28;20047;-88
2021/11/13 05:36:20;;;;;;;82.28;39.47;;;;;;;9.25;100.00;100118.66;4952632;28;20127;-87
2021/11/13 05:38:47;;;;;;;89.45;41.55;;;;;;;9.22;100.00;100116.22;4949844;29;20050;-88
2021/11/13 05:41:15;;;;;;;83.25;40.22;;;;;;;9.25;100.00;100108.25;4952040;28;20077;-88
2021/11/13 05:43:44;;;;;;;92.38;42.85;;;;;;;9.20;100.00;100115.41;4949110;28;20043;-89
2021/11/13 05:46:11;;;;;;;80.80;36.67;;;;;;;9.05;100.00;100108.31;4942768;28;20043;-88
2021/11/13 05:48:38;;;;;;;69.80;38.17;;;;;;;9.00;100.00;100105.09;4941519;29;20043;-87
2021/11/13 05:51:05;;;;;;;81.35;37.45;;;;;;;9.02;100.00;100111.91;4949622;28;20051;-85
2021/11/13 05:53:32;;;;;;;87.38;36.95;;;;;;;8.93;100.00;100115.78;4947222;28;20044;-85
2021/11/13 05:55:59;;;;;;;78.60;34.45;;;;;;;8.69;100.00;100109.09;4946362;28;20077;-88
2021/11/13 05:58:26;;;;;;;58.53;34.03;;;;;;;8.56;100.00;100105.34;4948964;28;20077;-87
2021/11/13 06:00:53;;;;;;;71.75;35.85;;;;;;;8.61;100.00;100105.97;4949291;28;20047;-84
2021/11/13 06:03:20;;;;;;;70.72;39.08;;;;;;;8.63;100.00;100098.97;4947905;28;20039;-84
2021/11/13 06:05:46;;;;;;;53.58;33.60;;;;;;;8.77;100.00;100096.59;4945282;29;20039;-84
2021/11/13 06:08:13;;;;;;;46.65;28.92;;;;;;;8.66;100.00;100094.47;4945798;28;20042;-85
2021/11/13 06:10:40;;;;;;;42.00;28.52;;;;;;;8.65;100.00;100094.53;4947634;28;20437;-83
2021/11/13 06:13:09;;;;;;;34.03;24.63;;;;;;;8.64;100.00;100085.91;4948921;28;20062;-83
2021/11/13 06:15:36;;;;;;;38.75;24.75;;;;;;;8.63;100.00;100084.22;4948353;28;20102;-84
2021/11/13 06:18:03;;;;;;;42.03;27.48;;;;;;;8.50;100.00;100084.81;4945322;28;20047;-83
2021/11/13 06:20:30;;;;;;;116.30;34.70;;;;;;;8.11;100.00;100090.78;4948087;28;20043;-83
2021/11/13 06:22:58;;;;;;;156.50;40.10;;;;;;;8.05;100.00;100097.09;4945436;29;20035;-82
2021/11/13 06:25:24;;;;;;;90.20;34.80;;;;;;;8.19;100.00;100093.91;4947376;28;20130;-83
2021/11/13 06:27:52;;;;;;;281.65;44.97;;;;;;;8.29;100.00;100100.38;4945694;28;20082;-82
2021/11/13 06:30:19;;;;;;;167.95;40.80;;;;;;;8.36;100.00;100096.66;4948194;28;20043;-82
2021/11/13 06:32:47;;;;;;;229.05;41.67;;;;;;;8.36;100.00;100107.06;4948112;28;20047;-83
2021/11/13 06:35:17;;;;;;;142.45;37.90;;;;;;;8.47;100.00;100104.00;4947297;28;20055;-83
2021/11/13 06:37:46;;;;;;;119.68;35.55;;;;;;;8.55;100.00;100103.66;4946182;28;20048;-84
2021/11/13 06:40:21;;;;;;;67.47;31.83;;;;;;;8.71;100.00;100102.06;4946360;28;20055;-82
2021/11/13 06:42:48;;;;;;;183.50;35.70;;;;;;;8.57;100.00;100096.63;4948036;28;20044;-84
2021/11/13 06:45:16;;;;;;;64.53;33.17;;;;;;;8.57;100.00;100100.06;4948403;28;20098;-85
2021/11/13 06:47:43;;;;;;;56.35;32.13;;;;;;;8.57;100.00;100104.41;4949201;28;20085;-86
2021/11/13 06:50:11;;;;;;;44.03;27.65;;;;;;;8.70;100.00;100102.97;4950825;28;20445;-85
2021/11/13 06:52:38;;;;;;;34.15;21.08;;;;;;;8.61;100.00;100100.78;4951525;28;20047;-85
2021/11/13 06:55:07;;;;;;;29.27;20.75;;;;;;;8.89;100.00;100098.66;4950832;28;20051;-85
2021/11/13 06:57:34;;;;;;;34.88;23.08;;;;;;;8.91;100.00;100096.81;4949745;29;20040;-84
2021/11/13 07:00:04;;;;;;;31.75;22.10;;;;;;;8.86;100.00;100098.78;4951740;28;20081;-85
2021/11/13 07:02:31;;;;;;;35.15;24.60;;;;;;;8.76;100.00;100107.91;4952960;28;20097;-84
2021/11/13 07:04:59;;;;;;;31.73;22.60;;;;;;;8.72;100.00;100108.94;4952864;28;20054;-84
2021/11/13 07:07:32;;;;;;;70.35;26.10;;;;;;;8.55;100.00;100106.25;4955337;28;20067;-84
2021/11/13 07:10:06;;;;;;;38.92;23.90;;;;;;;8.81;100.00;100105.94;4962598;28;20058;-85
2021/11/13 07:12:33;;;;;;;35.45;22.75;;;;;;;9.05;100.00;100106.56;4952813;28;20097;-85
2021/11/13 07:15:01;;;;;;;41.97;23.60;;;;;;;9.07;100.00;100107.34;4953406;28;20110;-85
2021/11/13 07:17:28;;;;;;;38.75;24.83;;;;;;;8.78;100.00;100108.66;4952244;28;20051;-85
2021/11/13 07:19:54;;;;;;;35.95;23.88;;;;;;;8.88;100.00;100104.75;4950098;29;20444;-84
2021/11/13 07:22:22;;;;;;;32.25;23.23;;;;;;;8.92;100.00;100113.25;4953834;28;20048;-84
2021/11/13 07:24:49;;;;;;;32.25;22.20;;;;;;;8.91;100.00;100120.22;4954713;29;20103;-84
2021/11/13 07:27:18;;;;;;;26.00;18.70;;;;;;;8.91;100.00;100120.22;4950687;28;20122;-88
2021/11/13 07:29:57;;;;;;;27.17;20.02;;;;;;;8.63;100.00;100128.41;4952603;28;20070;-84
2021/11/13 07:32:25;;;;;;;39.53;22.73;;;;;;;8.74;100.00;100116.69;4952466;28;20043;-81
2021/11/13 07:34:52;;;;;;;80.50;28.30;;;;;;;9.18;100.00;100127.66;4952381;28;20040;-83
2021/11/13 07:37:18;;;;;;;187.10;33.45;;;;;;;8.84;100.00;100123.13;4950126;28;20452;-82
2021/11/13 07:39:45;;;;;;;80.40;29.73;;;;;;;9.10;100.00;100124.56;4950945;28;20144;-81
2021/11/13 07:42:12;;;;;;;97.13;29.48;;;;;;;9.01;100.00;100120.66;4951717;28;20053;-79
2021/11/13 07:44:39;;;;;;;61.00;26.08;;;;;;;8.97;100.00;100107.84;4951195;28;20047;-82
2021/11/13 07:47:07;;;;;;;44.35;24.92;;;;;;;9.07;100.00;100120.34;4951495;28;20505;-87
2021/11/13 07:49:33;;;;;;;41.75;26.50;;;;;;;9.29;100.00;100116.75;4946420;29;20048;-86
2021/11/13 07:52:03;;;;;;;33.05;21.80;;;;;;;9.20;100.00;100105.03;4951063;28;20073;-83
2021/11/13 07:54:30;;;;;;;31.35;20.70;;;;;;;9.50;100.00;100112.31;4952746;28;20039;-84
2021/11/13 07:56:57;;;;;;;43.83;25.70;;;;;;;9.45;100.00;100113.38;4950377;28;20081;-82
2021/11/13 07:59:24;;;;;;;38.20;25.77;;;;;;;9.03;100.00;100111.00;4951709;28;20043;-84
2021/11/13 08:01:50;;;;;;;37.78;23.75;;;;;;;9.23;100.00;100117.91;4945849;28;20097;-80
2021/11/13 08:04:17;;;;;;;41.78;25.92;;;;;;;9.35;100.00;100119.06;4949449;28;20049;-83
2021/11/13 08:06:44;;;;;;;94.68;29.35;;;;;;;9.00;100.00;100118.09;4956591;28;20483;-82
2021/11/13 08:09:11;;;;;;;73.07;25.25;;;;;;;9.24;100.00;100116.13;4977214;28;20528;-81
2021/11/13 08:11:39;;;;;;;87.35;26.83;;;;;;;9.42;100.00;100120.47;4947123;28;20036;-84
2021/11/13 08:14:05;;;;;;;173.40;32.22;;;;;;;9.14;100.00;100128.72;4948581;28;20560;-83
2021/11/13 08:16:35;;;;;;;48.08;25.23;;;;;;;9.60;100.00;100129.19;4950251;28;20085;-84
2021/11/13 08:19:02;;;;;;;42.17;24.70;;;;;;;9.61;100.00;100125.66;4955026;28;20041;-87
2021/11/13 08:21:28;;;;;;;50.40;23.73;;;;;;;8.93;100.00;100126.16;4947577;29;20058;-94
2021/11/13 08:23:55;;;;;;;92.38;28.85;;;;;;;9.10;100.00;100128.00;4947467;28;20102;-87
2021/11/13 08:26:22;;;;;;;200.68;33.92;;;;;;;9.13;100.00;100125.28;4959234;28;20050;-86
2021/11/13 08:28:49;;;;;;;221.15;37.22;;;;;;;9.21;100.00;100129.25;4950420;29;20039;-86
2021/11/13 08:31:16;;;;;;;91.95;28.67;;;;;;;9.74;100.00;100124.13;4969570;28;20047;-87
2021/11/13 08:33:45;;;;;;;104.43;29.13;;;;;;;9.53;100.00;100125.16;4948976;28;20126;-82
2021/11/13 08:36:12;;;;;;;87.78;30.25;;;;;;;9.52;100.00;100139.09;4957542;28;20035;-89
2021/11/13 08:38:40;;;;;;;110.45;30.67;;;;;;;9.59;100.00;100149.16;4968492;28;20612;-93
2021/11/13 08:41:07;;;;;;;49.83;27.35;;;;;;;9.67;100.00;100143.56;4946915;28;20028;-92
2021/11/13 08:43:35;;;;;;;51.55;26.50;;;;;;;9.54;100.00;100143.31;4965871;28;20051;-90
2021/11/13 08:46:02;;;;;;;49.08;27.27;;;;;;;9.75;100.00;100138.84;4939618;29;20570;-89
2021/11/13 08:48:29;;;;;;;58.75;30.17;;;;;;;9.96;100.00;100137.81;4935261;29;20392;-89
2021/11/13 08:50:56;;;;;;;62.47;30.52;;;;;;;10.13;100.00;100146.56;4934193;29;20048;-85
2021/11/13 08:53:23;;;;;;;51.97;29.73;;;;;;;9.80;100.00;100136.00;4936709;28;20090;-81
2021/11/13 08:55:50;;;;;;;52.00;30.30;;;;;;;10.21;100.00;100140.03;4934409;28;20453;-85
2021/11/13 08:58:17;;;;;;;51.97;29.58;;;;;;;10.12;100.00;100147.44;4935310;29;20056;-87
2021/11/13 09:01:06;;;;;;;56.95;30.77;;;;;;;10.71;100.00;100156.66;4937696;29;20201;-87
2021/11/13 09:03:40;;;;;;;61.38;34.25;;;;;;;10.72;100.00;100153.97;4938961;29;20070;-87
2021/11/13 09:06:11;;;;;;;62.13;34.58;;;;;;;10.35;100.00;100148.94;4934754;29;20158;-85
2021/11/13 09:08:39;;;;;;;57.42;33.28;;;;;;;10.25;100.00;100139.91;4938743;28;20082;-88
2021/11/13 09:11:08;;;;;;;46.92;27.55;;;;;;;10.32;100.00;100134.31;4946168;28;20486;-83
2021/11/13 09:13:35;;;;;;;66.75;35.00;;;;;;;10.86;100.00;100134.97;4938112;28;20126;-82
2021/11/13 09:16:04;;;;;;;47.92;29.98;;;;;;;11.10;100.00;100138.06;4935183;29;20048;-82
2021/11/13 09:18:31;;;;;;;55.45;32.15;;;;;;;10.79;100.00;100135.38;4949001;28;20899;-84
2021/11/13 09:20:59;;;;;;;60.28;33.45;;;;;;;10.62;100.00;100139.72;4935590;29;20040;-84
2021/11/13 09:23:25;;;;;;;57.15;33.08;;;;;;;10.66;100.00;100143.84;4936733;29;20048;-83
2021/11/13 09:25:55;;;;;;;63.13;33.03;;;;;;;10.64;100.00;100144.84;4936063;29;20047;-83
2021/11/13 09:28:23;;;;;;;64.50;37.17;;;;;;;10.32;100.00;100144.72;4933448;29;20043;-86
2021/11/13 09:30:50;;;;;;;65.75;38.20;;;;;;;10.73;100.00;100140.00;4938410;29;20114;-81
2021/11/13 09:33:17;;;;;;;70.10;38.67;;;;;;;10.98;100.00;100134.34;4936704;29;20090;-85
2021/11/13 09:35:44;;;;;;;71.88;34.13;;;;;;;10.95;100.00;100137.09;4944265;29;20054;-84
2021/11/13 09:38:25;;;;;;;72.20;33.83;;;;;;;10.86;100.00;100142.78;4944245;28;20497;-82
2021/11/13 09:40:55;;;;;;;64.90;34.45;;;;;;;10.98;100.00;100134.34;4944219;28;20051;-83
2021/11/13 09:43:24;;;;;;;60.50;33.22;;;;;;;11.63;100.00;100126.44;4944058;28;20055;-83
2021/11/13 09:45:53;;;;;;;62.45;35.30;;;;;;;11.02;100.00;100135.00;4931858;28;20627;-84
2021/11/13 09:48:20;;;;;;;53.28;29.48;;;;;;;11.18;100.00;100141.06;4937906;28;20177;-84
2021/11/13 09:50:50;;;;;;;97.05;33.15;;;;;;;10.55;100.00;100133.16;4941608;28;20074;-83
2021/11/13 09:53:23;;;;;;;167.57;35.78;;;;;;;10.20;100.00;100130.53;4937492;29;20406;-84
2021/11/13 09:55:53;;;;;;;75.28;31.88;;;;;;;10.90;100.00;100126.06;4941437;29;20095;-83
2021/11/13 09:58:23;;;;;;;102.10;32.72;;;;;;;10.62;100.00;100129.28;4945287;29;20094;-84
2021/11/13 10:00:53;;;;;;;64.07;31.35;;;;;;;11.15;100.00;100114.31;4944878;28;20070;-82
2021/11/13 10:03:21;;;;;;;175.02;34.45;;;;;;;11.45;100.00;100115.25;4941620;29;20126;-81
2021/11/13 10:05:53;;;;;;;99.97;33.15;;;;;;;11.50;100.00;100115.84;4933752;29;20055;-82
2021/11/13 10:08:20;;;;;;;74.22;31.05;;;;;;;11.33;100.00;100113.31;4932505;28;20062;-83
2021/11/13 10:10:52;;;;;;;62.78;30.88;;;;;;;11.37;100.00;100112.22;4947167;29;20123;-82
2021/11/13 10:13:34;;;;;;;94.40;30.15;;;;;;;11.50;100.00;100110.63;4946537;29;20044;-81
2021/11/13 10:16:09;;;;;;;81.70;27.42;;;;;;;11.02;100.00;100120.22;4932485;29;20126;-84
2021/11/13 10:18:43;;;;;;;87.00;29.45;;;;;;;11.29;100.00;100109.19;4935650;29;20494;-82
2021/11/13 10:21:15;;;;;;;80.18;29.23;;;;;;;10.89;100.00;100108.75;4935005;28;20055;-82
2021/11/13 10:23:46;;;;;;;88.60;27.10;;;;;;;10.69;100.00;100111.56;4935073;28;20055;-81
2021/11/13 10:26:23;;;;;;;50.03;25.35;;;;;;;11.62;100.00;100105.63;4933966;28;20047;-82
2021/11/13 10:28:55;;;;;;;59.85;28.25;;;;;;;12.06;100.00;100108.34;4932363;28;20095;-81
2021/11/13 10:31:25;;;;;;;88.60;28.13;;;;;;;11.46;100.00;100098.66;4933839;29;20048;-83
2021/11/13 10:33:55;;;;;;;100.47;30.60;;;;;;;11.09;100.00;100093.78;4933120;28;20060;-85
2021/11/13 10:36:35;;;;;;;74.43;29.20;;;;;;;11.25;100.00;100099.84;4935085;29;20495;-85
2021/11/13 10:39:10;;;;;;;50.30;28.48;;;;;;;11.19;100.00;100089.75;4940891;29;20077;-81
2021/11/13 10:41:49;;;;;;;64.78;30.48;;;;;;;11.99;100.00;100091.34;4937636;29;20044;-81
2021/11/13 10:44:23;;;;;;;93.28;29.50;;;;;;;11.62;100.00;100097.81;4942882;29;20139;-82
2021/11/13 10:46:51;;;;;;;47.88;25.52;;;;;;;11.62;100.00;100087.38;4944263;29;20112;-79
2021/11/13 10:49:18;;;;;;;85.43;29.75;;;;;;;12.25;100.00;100093.28;4939832;29;20088;-82
2021/11/13 10:51:57;;;;;;;45.50;28.73;;;;;;;12.16;100.00;100093.81;4948597;29;20040;-84
2021/11/13 10:54:27;;;;;;;51.47;27.38;;;;;;;11.92;100.00;100083.00;4951241;29;20510;-85
2021/11/13 10:56:57;;;;;;;49.30;26.50;;;;;;;11.84;100.00;100074.78;4951152;28;20036;-85
2021/11/13 10:59:29;;;;;;;57.95;30.52;;;;;;;11.27;100.00;100067.50;4938594;29;20043;-81
2021/11/13 11:02:05;;;;;;;73.85;31.35;;;;;;;11.49;100.00;100061.09;4940467;29;20043;-80
2021/11/13 11:04:35;;;;;;;59.67;30.13;;;;;;;11.87;100.00;100060.69;4935471;29;20142;-80
2021/11/13 11:07:05;;;;;;;42.05;26.02;;;;;;;12.61;100.00;100051.91;4936585;29;20035;-79
2021/11/13 11:09:35;;;;;;;68.82;29.40;;;;;;;11.77;100.00;100045.53;4937001;29;20089;-80
2021/11/13 11:12:07;;;;;;;49.85;27.45;;;;;;;11.74;100.00;100040.50;4936257;29;20051;-80
2021/11/13 11:14:34;;;;;;;58.00;26.38;;;;;;;11.75;100.00;100041.31;4938804;29;20047;-81
2021/11/13 11:17:05;;;;;;;63.80;26.45;;;;;;;11.71;100.00;100034.59;4936163;29;20109;-80